Lodi, WI

6:48 PM CST en Noviembre 23, 2014 (GMT -0600)
Okee | Change Station
CLOSE
Current Station
Estación meteorológica personal
Location: Lodi, WI
Altura: 906 ft
Estaciones meteorológicas cercanas
Aviso en curso: Winter Weather Advisory

Alt 906 ft 43.36 °N, 89.57 °W | Updated 51 seconds ago

Lluvia
Lluvia
46.4 ° F
Sensación térmica 46 ° F
N
0.0
Viento Variable Viento desde ESE
Gusts 0.0 mph

Hoy
Alta -- | Baja -- ° F
--% Posibilidad de precipitaciones
Ayer
Alta -- | Baja -- ° F
Precip. -- pul
7:01 AM 4:27 PM
Creciente, 3% visible
Presión 29.33 pul
Visibilidad 3.0 Millas
Nubes Nublado 300 ft
Vientos helados 46 ° F
Punto de rocío 46 ° F
Humedad 97%
Precipitaciones 0.48 pul
Espesor de la nieve No disponible.
UV 0 de una escala de 12
Polen .10 de una escala de 12
Calidad del aire No disponible.
Flu Activity No disponible.
METAR KC29 240035Z AUTO 11004KT 3SM OVC003 09/09 A2933 RMK AO1 P0002 T00900090

More Conditions Fewer Conditions

Presión 29.33 pul
Visibilidad 3.0 Millas
Nubes Nublado 300 ft
Vientos helados 46 ° F
Punto de rocío 46 ° F
Humedad 97%
Precipitaciones 0.48 pul
Espesor de la nieve No disponible.
UV 0 de una escala de 12
Polen .10 de una escala de 12
Calidad del aire No disponible.
Flu Activity No disponible.
METAR KC29 240035Z AUTO 11004KT 3SM OVC003 09/09 A2933 RMK AO1 P0002 T00900090

More Conditions Fewer Conditions

10-Day Weather Forecast

Almanac

Astronomía

Nov. 23, 2014 Salida Puesta
Hora real
Crepúsculo civil
Crepúsculo náutico
Crepúsculo astronómico
Luna
Horas de luz
Horas de luz
Tomorrow will be .
, % of the Moon is Illuminated

Extremos de hoy

Máximos del estado Bajos del estado

Community

WunderPhotos

Upload Photos

1,773,226 ¡fotos cargadas!

WunderBlogs® & News

Nearby

Calidad del aire

  Calidad del aire Índice AQ Contaminante
Not available.

Grosos de nieve

Estación Profundido Altura

Actividad de terremotos

Ciudad Distance Mag. Tiempo y dato
Magnitud mínima muestra es 2,5.

Temperaturas de aguas costeras

Lugar Temperatura

Estaciones meteorológicas cercanas